• Join FlightAware (Why Join?)
  • Login
  • US Flag 
07:15AM EDT


 

Airport Tracker/Info


-or-


 

Live Flight TrackerFlight Track Log ✈ N441JB ✈ 03-Feb-2010 ✈ KCNO - KPVU

Flight Track Log - Related Links

Times and Time Zones

All times are in EST time to prevent confusion due to time zone crossing. See the N441JB flight status page for this flight to view local times or setup timezone preferences in your user account.

Time Position Orientation Groundspeed Altitude Reporting Facility
EST Latitude Longitude Course Direction KTS MPH feet Rate Location/Type
02:18PM 33.9500 -117.6330 40° Northeast 216 249 2,500  Level
02:19PM 34.0000 -117.5830 32° Northeast 213 245 5,400 2,460 Climbing C
02:20PM 34.0458 -117.5480 33° Northeast 247 284 7,400 1,860 Climbing C
02:21PM 34.1028 -117.5040 36° Northeast 247 284 9,100 1,020 Climbing C
02:22PM 34.1661 -117.4490 39° Northeast 291 335 9,500 1,500 Climbing C
02:23PM 34.2272 -117.3900 38° Northeast 256 295 12,100 2,100 Climbing C
02:24PM 34.2797 -117.3410 37° Northeast 286 329 13,700 1,500 Climbing C
02:25PM 34.3389 -117.2860 38° Northeast 276 318 15,100 1,560 Climbing C
02:26PM 34.3914 -117.2360 39° Northeast 268 308 16,900 1,260 Climbing C
02:27PM 34.4506 -117.1770 39° Northeast 261 300 17,700 300 Climbing C
02:28PM 34.5200 -117.1090 39° Northeast 282 325 17,500 -60 Descending D
02:29PM 34.5892 -117.0400 41° Northeast 305 351 17,600 60 Climbing C
02:30PM 34.6525 -116.9720 41° Northeast 311 358 17,700  Climbing C
02:31PM 34.7197 -116.9000 45° Northeast 311 358 17,600 -60 Descending D
02:32PM 34.7828 -116.8240 43° Northeast 311 358 17,600 -60 Level
02:33PM 34.8478 -116.7490 42° Northeast 316 364 17,500 -120 Descending D
02:34PM 34.9150 -116.6760 44° Northeast 316 364 17,400  Descending D
02:35PM 34.9778 -116.6030 41° Northeast 316 364 17,500  Climbing C
02:36PM 35.0469 -116.5300 42° Northeast 316 364 17,500  Level
02:37PM 35.1119 -116.4590 43° Northeast 316 364 17,600  Climbing C
02:38PM 35.1789 -116.3830 43° Northeast 316 364 17,600 -60 Level
02:39PM 35.2436 -116.3090 42° Northeast 316 364 17,500  Descending D
02:40PM 35.3106 -116.2360 46° Northeast 316 364 17,600  Climbing C
02:41PM 35.3733 -116.1570 44° Northeast 316 364 17,500  Descending D
02:42PM 35.4378 -116.0810 42° Northeast 316 364 17,600  Climbing C
02:43PM 35.5047 -116.0060 44° Northeast 316 364 17,500  Descending D
02:44PM 35.5692 -115.9300 40° Northeast 316 364 17,600 60 Climbing C
02:44PM 35.5964 -115.9020 43° Northeast 326 375 17,600  Level
02:45PM 35.6464 -115.8450 39° Northeast 321 369 17,600 60 Level
02:46PM 35.6794 -115.8120 43° Northeast 324 373 17,700  Climbing C
02:46PM 35.7128 -115.7730 38° Northeast 321 369 17,600 -420 Descending D
02:47PM 35.7442 -115.7430 40° Northeast 317 365 17,300  Descending D
02:47PM 35.7814 -115.7040 45° Northeast 321 369 17,600 240 Climbing C
02:48PM 35.8086 -115.6710 39° Northeast 316 364 17,600 60 Level
02:48PM 35.8458 -115.6340 38° Northeast 309 356 17,700  Climbing C
02:49PM 35.8853 -115.5960 43° Northeast 307 353 17,600 -120 Descending D
02:49PM 35.9103 -115.5670 39° Northeast 304 350 17,600  Level
02:50PM 35.9519 -115.5260 40° Northeast 307 353 17,600 -240 Level
02:50PM 35.9767 -115.5000 36° Northeast 304 350 17,400  Descending D
02:51PM 36.0203 -115.4610 39° Northeast 311 358 17,600 180 Climbing C
02:51PM 36.0453 -115.4360 30° Northeast 304 350 17,600 -240 Level
02:52PM 36.0867 -115.4070 41° Northeast 305 351 17,400 -120 Descending D
02:52PM 36.1158 -115.3760 34° Northeast 304 350 17,500 120 Climbing C
02:53PM 36.1864 -115.3160 37° Northeast 304 350 17,600 60 Climbing C
02:54PM 36.2528 -115.2540 36° Northeast 304 350 17,700  Climbing C
02:55PM 36.3211 -115.1930 36° Northeast 304 350 17,600  Descending D
02:56PM 36.3894 -115.1310 36° Northeast 304 350 17,700  Climbing C
02:57PM 36.4556 -115.0710 36° Northeast 304 350 17,700 -60 Level
02:58PM 36.5261 -115.0070 36° Northeast 309 356 17,600 -60 Descending D
02:59PM 36.5964 -114.9440 37° Northeast 309 356 17,600  Level
03:00PM 36.6625 -114.8810 34° Northeast 309 356 17,600 -120 Level
03:01PM 36.7308 -114.8230 33° Northeast 304 350 17,400 -120 Descending D
03:02PM 36.7867 -114.7770 30° Northeast 309 356 17,400 120 Level
03:03PM 36.8589 -114.7240 29° Northeast 304 350 17,700 60 Climbing C
03:04PM 36.9331 -114.6730 30° Northeast 303 349 17,600  Descending D
03:05PM 37.0072 -114.6200 33° Northeast 305 351 17,700  Climbing C
03:06PM 37.0894 -114.5530 36° Northeast 310 357 17,700 -60 Level
03:07PM 37.1614 -114.4880 35° Northeast 313 360 17,600 -60 Descending D
03:08PM 37.2342 -114.4230 35° Northeast 315 362 17,600  Level
03:09PM 37.3061 -114.3590 37° Northeast 314 361 17,700  Climbing C
03:10PM 37.3769 -114.2920 38° Northeast 313 360 17,600  Descending D
03:11PM 37.4478 -114.2230 35° Northeast 315 362 17,700  Climbing C
03:12PM 37.5203 -114.1590 34° Northeast 314 361 17,600  Descending D
03:13PM 37.5928 -114.0980 34° Northeast 311 358 17,800  Climbing C
03:14PM 37.6661 -114.0350 36° Northeast 310 357 17,600 -180 Descending D
03:15PM 37.7392 -113.9690 39° Northeast 313 360 17,500 -60 Descending D
03:16PM 37.8106 -113.8970 39° Northeast 317 365 17,500  Level
03:17PM 37.8808 -113.8240 38° Northeast 320 368 17,500  Level
03:18PM 37.9525 -113.7530 38° Northeast 321 369 17,600  Climbing C
03:20PM 38.0247 -113.6820 36° Northeast 321 369 17,600  Level
03:21PM 38.0989 -113.6130 35° Northeast 322 371 17,700  Climbing C
03:22PM 38.1733 -113.5460 34° Northeast 323 372 17,600  Descending D
03:23PM 38.2492 -113.4800 34° Northeast 323 372 17,700  Climbing C
03:24PM 38.3397 -113.4010 36° Northeast 324 373 17,700 60 Level
03:25PM 38.4139 -113.3320 36° Northeast 323 372 17,900 60 Climbing C
03:26PM 38.4886 -113.2630 36° Northeast 324 373 17,900 -120 Level
03:27PM 38.5628 -113.1930 37° Northeast 325 374 17,700 -240 Descending D
03:28PM 38.6361 -113.1210 40° Northeast 325 374 17,500  Descending D
03:29PM 38.7075 -113.0440 39° Northeast 326 375 17,700 60 Climbing C
03:30PM 38.7803 -112.9670 39° Northeast 328 377 17,700  Level
03:31PM 38.8531 -112.8910 40° Northeast 330 380 17,700  Level
03:32PM 38.9250 -112.8140 38° Northeast 331 381 17,800 -240 Climbing C
03:33PM 38.9992 -112.7390 36° Northeast 334 384 17,300 -60 Descending D
03:34PM 39.0747 -112.6690 35° Northeast 332 382 17,700 60 Climbing C
03:35PM 39.1514 -112.5990 39° Northeast 332 382 17,500 -120 Descending D
03:36PM 39.2289 -112.5180 40° Northeast 329 379 17,500  Level
03:37PM 39.3003 -112.4410 38° Northeast 329 379 17,600  Climbing C
03:38PM 39.3736 -112.3680 36° Northeast 329 379 17,500 -60 Descending D
03:39PM 39.4489 -112.2970 37° Northeast 332 382 17,500  Level
03:40PM 39.5225 -112.2240 38° Northeast 332 382 17,500  Level
03:41PM 39.5961 -112.1500 38° Northeast 331 381 17,500 -180 Level
03:42PM 39.6692 -112.0760 37° Northeast 331 381 17,200 -1,080 Descending D
03:43PM 39.7442 -112.0030 37° Northeast 333 383 15,400 -1,920 Descending D
03:44PM 39.8186 -111.9290 37° Northeast 334 384 13,300 -2,100 Descending D